createdAt,value
2022-09-18T00:00:07.886Z,10.1
2022-09-18T00:05:07.949Z,10.1
2022-09-18T00:10:07.655Z,10.1
2022-09-18T00:15:08.356Z,10.0
2022-09-18T00:20:08.045Z,10.0
2022-09-18T00:25:07.747Z,10.0
2022-09-18T00:30:08.469Z,10.0
2022-09-18T00:35:08.150Z,10.1
2022-09-18T00:40:07.895Z,10.0
2022-09-18T00:45:08.689Z,10.3
2022-09-18T00:50:08.391Z,10.1
2022-09-18T00:55:08.078Z,10.1
2022-09-18T01:00:07.797Z,10.1
2022-09-18T01:05:09.420Z,10.3
2022-09-18T01:10:18.124Z,10.1
2022-09-18T01:15:07.824Z,10.1
2022-09-18T01:20:08.520Z,10.5
2022-09-18T01:25:08.243Z,10.3
2022-09-18T01:30:07.930Z,10.5
2022-09-18T01:35:18.680Z,10.5
2022-09-18T01:40:07.803Z,10.5
2022-09-18T01:45:08.525Z,10.3
2022-09-18T01:50:08.248Z,10.5
2022-09-18T01:55:07.905Z,10.3
2022-09-18T02:00:08.614Z,10.5
2022-09-18T02:05:08.358Z,10.5
2022-09-18T02:10:08.086Z,10.3
2022-09-18T02:15:07.799Z,10.3
2022-09-18T02:20:08.477Z,10.5
2022-09-18T02:25:08.173Z,10.5
2022-09-18T02:30:07.882Z,10.5
2022-09-18T02:35:08.567Z,10.5
2022-09-18T02:40:08.285Z,10.3
2022-09-18T02:45:08.091Z,10.1
2022-09-18T02:50:07.811Z,10.1
2022-09-18T02:55:08.560Z,10.5
2022-09-18T03:00:08.288Z,10.3
2022-09-18T03:05:07.994Z,10.1
2022-09-18T03:10:07.675Z,10.1
2022-09-18T03:15:08.364Z,10.3
2022-09-18T03:20:08.071Z,10.1
2022-09-18T03:25:07.755Z,10.1
2022-09-18T03:30:08.442Z,10.5
2022-09-18T03:35:08.110Z,10.5
2022-09-18T03:40:07.881Z,10.5
2022-09-18T03:45:08.593Z,10.5
2022-09-18T03:50:08.316Z,10.5
2022-09-18T03:55:07.987Z,10.5
2022-09-18T04:00:07.658Z,10.6
2022-09-18T04:05:02.924Z,10.6
2022-09-18T04:10:01.969Z,10.5
2022-09-18T04:15:12.146Z,10.3
2022-09-18T04:20:11.963Z,10.1
2022-09-18T04:25:09.010Z,10.6
2022-09-18T04:30:02.225Z,10.1
2022-09-18T04:35:04.292Z,10.1
2022-09-18T04:40:03.465Z,10.5
2022-09-18T04:45:02.565Z,10.5
2022-09-18T04:50:03.934Z,10.5
2022-09-18T04:55:05.884Z,10.3
2022-09-18T05:00:03.744Z,10.5
2022-09-18T05:05:12.437Z,10.6
2022-09-18T05:10:04.076Z,10.3
2022-09-18T05:15:02.889Z,10.6
2022-09-18T05:20:04.074Z,10.3
2022-09-18T05:25:07.356Z,10.3
2022-09-18T05:30:03.403Z,10.5
2022-09-18T05:35:04.473Z,10.5
2022-09-18T05:40:02.518Z,10.3
2022-09-18T05:45:03.501Z,10.6
2022-09-18T05:50:06.681Z,10.6
2022-09-18T05:55:05.599Z,10.6
2022-09-18T06:00:07.397Z,10.6
2022-09-18T06:05:05.485Z,10.3
2022-09-18T06:10:02.762Z,10.5
2022-09-18T06:15:03.409Z,10.6
2022-09-18T06:20:02.823Z,10.5
2022-09-18T06:25:03.393Z,10.3
2022-09-18T06:30:04.294Z,10.3
2022-09-18T06:35:04.546Z,10.5
2022-09-18T06:40:03.490Z,10.5
2022-09-18T06:45:03.737Z,10.8
2022-09-18T06:50:04.217Z,10.8
2022-09-18T06:55:03.323Z,10.6
2022-09-18T07:00:08.423Z,10.6
2022-09-18T07:05:05.867Z,10.5
2022-09-18T07:10:08.843Z,10.5
2022-09-18T07:15:07.492Z,10.5
2022-09-18T07:20:04.125Z,10.5
2022-09-18T07:25:04.270Z,10.6
2022-09-18T07:30:07.605Z,10.5
2022-09-18T07:35:05.604Z,10.6
2022-09-18T07:40:02.970Z,10.5
2022-09-18T07:45:02.635Z,10.8
2022-09-18T07:50:05.256Z,10.8
2022-09-18T07:55:04.857Z,10.8
2022-09-18T08:00:06.213Z,10.6
2022-09-18T08:05:03.675Z,10.8
2022-09-18T08:10:06.000Z,10.8
2022-09-18T08:15:04.828Z,10.8
2022-09-18T08:20:04.107Z,10.8
2022-09-18T08:25:04.615Z,10.8
2022-09-18T08:30:03.474Z,10.8
2022-09-18T08:35:04.376Z,10.8
2022-09-18T08:40:12.091Z,10.8
2022-09-18T08:45:18.796Z,11.1
2022-09-18T08:50:06.139Z,11.3
2022-09-18T08:55:03.825Z,11.3
2022-09-18T09:00:04.277Z,11.3
2022-09-18T09:05:06.650Z,11.3
2022-09-18T09:10:04.567Z,11.3
2022-09-18T09:15:05.924Z,11.1
2022-09-18T09:20:06.045Z,11.3
2022-09-18T09:25:07.176Z,11.3
2022-09-18T09:30:03.846Z,11.3
2022-09-18T09:35:03.889Z,11.3
2022-09-18T09:40:03.280Z,11.3
2022-09-18T09:45:03.413Z,11.6
2022-09-18T09:50:04.310Z,11.3
2022-09-18T09:55:13.818Z,11.1
2022-09-18T10:00:03.917Z,11.3
2022-09-18T10:05:05.330Z,11.0
2022-09-18T10:10:03.533Z,11.1
2022-09-18T10:15:04.640Z,11.1
2022-09-18T10:20:03.997Z,11.1
2022-09-18T10:25:01.908Z,11.1
2022-09-18T10:30:04.103Z,11.3
2022-09-18T10:35:03.570Z,11.6
2022-09-18T10:40:03.531Z,12.0
2022-09-18T10:45:04.899Z,12.1
2022-09-18T10:50:04.281Z,11.8
2022-09-18T10:55:08.433Z,11.8
2022-09-18T11:00:02.407Z,11.8
2022-09-18T11:05:03.206Z,11.6
2022-09-18T11:10:04.167Z,11.8
2022-09-18T11:15:03.142Z,11.6
2022-09-18T11:20:06.500Z,11.6
2022-09-18T11:25:02.921Z,11.6
2022-09-18T11:30:04.238Z,11.6
2022-09-18T11:35:03.581Z,11.3
2022-09-18T11:40:05.437Z,11.6
2022-09-18T11:45:02.597Z,11.3
2022-09-18T11:50:03.930Z,11.3
2022-09-18T11:55:03.662Z,11.6
2022-09-18T12:00:03.917Z,11.3
2022-09-18T12:05:05.221Z,11.6
2022-09-18T12:10:01.049Z,11.3
2022-09-18T12:15:13.847Z,11.6
2022-09-18T12:20:03.106Z,11.6
2022-09-18T12:25:03.889Z,11.3
2022-09-18T12:30:02.070Z,11.3
2022-09-18T12:35:03.930Z,11.3
2022-09-18T12:40:02.337Z,11.3
2022-09-18T12:45:01.366Z,11.3
2022-09-18T12:50:02.334Z,10.8
2022-09-18T12:55:02.682Z,10.6
2022-09-18T13:00:03.569Z,10.6
2022-09-18T13:05:15.246Z,10.6
2022-09-18T13:10:02.950Z,10.3
2022-09-18T13:15:12.222Z,9.8
2022-09-18T13:20:02.888Z,10.0
2022-09-18T13:25:05.946Z,10.0
2022-09-18T13:30:03.429Z,9.8
2022-09-18T13:35:04.090Z,10.1
2022-09-18T13:40:10.688Z,10.1
2022-09-18T13:45:06.620Z,10.3
2022-09-18T13:50:05.262Z,10.1
2022-09-18T13:55:03.864Z,10.1
2022-09-18T14:00:04.069Z,10.1
2022-09-18T14:05:03.407Z,10.3
2022-09-18T14:10:05.195Z,10.1
2022-09-18T14:15:12.669Z,10.3
2022-09-18T14:20:06.248Z,10.1
2022-09-18T14:25:03.032Z,10.1
2022-09-18T14:30:01.994Z,10.1
2022-09-18T14:35:11.879Z,10.3
2022-09-18T14:40:07.665Z,10.3
2022-09-18T14:45:05.598Z,10.1
2022-09-18T14:50:03.813Z,10.1
2022-09-18T14:55:04.567Z,10.1
2022-09-18T15:00:04.285Z,10.1
2022-09-18T15:05:02.255Z,10.1
2022-09-18T15:10:04.754Z,10.1
2022-09-18T15:15:03.062Z,10.1
2022-09-18T15:20:03.151Z,10.5
2022-09-18T15:25:03.634Z,10.3
2022-09-18T15:30:03.324Z,10.6
2022-09-18T15:35:14.921Z,10.5
2022-09-18T15:40:08.489Z,10.5
2022-09-18T15:45:02.502Z,10.3
2022-09-18T15:50:03.215Z,10.5
2022-09-18T15:55:03.485Z,10.5
2022-09-18T16:00:02.833Z,10.3
2022-09-18T16:05:04.168Z,10.1
2022-09-18T16:10:03.587Z,10.1
2022-09-18T16:15:04.083Z,10.0
2022-09-18T16:20:03.634Z,9.8
2022-09-18T16:25:06.386Z,9.6
2022-09-18T16:30:03.984Z,9.6
2022-09-18T16:35:02.355Z,9.6
2022-09-18T16:40:06.892Z,9.5
2022-09-18T16:45:03.281Z,9.3
2022-09-18T16:50:03.329Z,9.1
2022-09-18T16:55:02.244Z,9.3
2022-09-18T17:00:03.542Z,9.3
2022-09-18T17:05:12.450Z,9.0
2022-09-18T17:10:04.878Z,9.1
2022-09-18T17:15:05.112Z,9.1
2022-09-18T17:20:02.505Z,9.3
2022-09-18T17:25:05.834Z,9.1
2022-09-18T17:30:04.843Z,9.3
2022-09-18T17:35:03.881Z,9.1
2022-09-18T17:40:03.516Z,9.3
2022-09-18T17:45:04.752Z,9.3
2022-09-18T17:50:02.791Z,9.3
2022-09-18T17:55:04.455Z,9.3
2022-09-18T18:00:07.652Z,9.0
2022-09-18T18:05:05.589Z,8.8
2022-09-18T18:10:10.141Z,8.8
2022-09-18T18:15:03.726Z,8.8
2022-09-18T18:20:05.280Z,8.8
2022-09-18T18:25:03.359Z,8.8
2022-09-18T18:30:03.944Z,8.8
2022-09-18T18:35:02.537Z,8.8
2022-09-18T18:40:06.117Z,8.8
2022-09-18T18:45:08.881Z,8.8
2022-09-18T18:50:06.049Z,8.8
2022-09-18T18:55:07.501Z,8.8
2022-09-18T19:00:04.049Z,9.0
2022-09-18T19:05:05.226Z,9.0
2022-09-18T19:10:02.415Z,8.8
2022-09-18T19:15:07.632Z,8.8
2022-09-18T19:20:02.898Z,8.8
2022-09-18T19:25:14.187Z,8.8
2022-09-18T19:30:02.247Z,8.8
2022-09-18T19:35:03.216Z,8.8
2022-09-18T19:40:04.679Z,8.6
2022-09-18T19:45:08.314Z,8.6
2022-09-18T19:50:03.373Z,8.5
2022-09-18T19:55:03.614Z,8.5
2022-09-18T20:00:09.040Z,8.6
2022-09-18T20:05:06.786Z,8.6
2022-09-18T20:10:19.600Z,8.5
2022-09-18T20:15:02.712Z,8.5
2022-09-18T20:20:08.537Z,8.5
2022-09-18T20:25:04.806Z,8.5
2022-09-18T20:30:04.762Z,8.5
2022-09-18T20:35:13.058Z,8.5
2022-09-18T20:40:05.576Z,8.3
2022-09-18T20:45:15.546Z,8.3
2022-09-18T20:50:05.501Z,8.3
2022-09-18T20:55:03.602Z,8.3
2022-09-18T21:00:03.989Z,8.0
2022-09-18T21:05:04.534Z,8.0
2022-09-18T21:10:13.851Z,8.0
2022-09-18T21:15:08.011Z,8.0
2022-09-18T21:20:03.716Z,8.0
2022-09-18T21:25:04.302Z,8.0
2022-09-18T21:30:13.178Z,7.9
2022-09-18T21:35:07.920Z,7.9
2022-09-18T21:40:08.691Z,8.1
2022-09-18T21:45:08.440Z,8.1
2022-09-18T21:50:08.139Z,8.1
2022-09-18T21:55:07.821Z,8.1
2022-09-18T22:00:08.573Z,8.5
2022-09-18T22:05:08.340Z,8.5
2022-09-18T22:10:08.043Z,8.5
2022-09-18T22:15:07.757Z,8.5
2022-09-18T22:20:08.475Z,9.0
2022-09-18T22:25:08.212Z,9.0
2022-09-18T22:30:07.909Z,8.5
2022-09-18T22:35:08.599Z,8.5
2022-09-18T22:40:08.423Z,8.6
2022-09-18T22:45:08.150Z,8.6
2022-09-18T22:50:07.888Z,8.5
2022-09-18T22:55:08.577Z,8.5
2022-09-18T23:01:00.809Z,8.6
2022-09-18T23:05:08.532Z,9.0
2022-09-18T23:10:07.977Z,9.0
2022-09-18T23:15:07.657Z,9.1
2022-09-18T23:20:08.351Z,9.3
2022-09-18T23:25:08.036Z,9.3
2022-09-18T23:30:07.733Z,9.5
2022-09-18T23:35:08.426Z,9.5
2022-09-18T23:40:08.162Z,9.5
2022-09-18T23:45:07.874Z,9.5
2022-09-18T23:50:08.606Z,9.5
2022-09-18T23:55:08.301Z,9.3
